Time;durP1;ratioP1;P1;durP2;ratioP2;P2;SDS_P1;SDS_P2;PMS_P1;PMS_P2;Temp;Humidity;BMP_temperature;BMP_pressure;BME280_temperature;BME280_humidity;BME280_pressure;Samples;Min_cycle;Max_cycle;Signal;HPM_P1;HPM_P2
2023/06/24 00:02:06;;;;;;;7.97;5.45;;;15.90;99.90;;;;;;4995963;28;20425;-80
2023/06/24 00:04:32;;;;;;;7.40;5.68;;;16.00;99.90;;;;;;4994651;28;20129;-80
2023/06/24 00:06:59;;;;;;;8.43;5.93;;;15.90;99.90;;;;;;4994619;28;20122;-80
2023/06/24 00:09:27;;;;;;;9.05;6.43;;;15.90;99.90;;;;;;4995898;28;20049;-80
2023/06/24 00:11:53;;;;;;;6.50;4.90;;;15.90;99.90;;;;;;4995215;28;20486;-80
2023/06/24 00:14:21;;;;;;;8.63;5.40;;;15.90;99.90;;;;;;4995248;28;20038;-80
2023/06/24 00:16:50;;;;;;;6.05;5.10;;;15.90;99.90;;;;;;4994166;28;20046;-80
2023/06/24 00:19:20;;;;;;;6.78;5.35;;;15.90;99.90;;;;;;4994517;28;20038;-80
2023/06/24 00:21:47;;;;;;;5.53;4.50;;;15.90;99.90;;;;;;4994017;28;20066;-80
2023/06/24 00:24:12;;;;;;;7.15;4.47;;;15.90;99.90;;;;;;4995060;28;20814;-80
2023/06/24 00:26:38;;;;;;;5.78;4.63;;;15.90;99.90;;;;;;4995083;28;20137;-80
2023/06/24 00:29:03;;;;;;;5.88;4.70;;;15.90;99.90;;;;;;4995364;28;20057;-80
2023/06/24 00:31:29;;;;;;;5.57;4.45;;;15.90;99.90;;;;;;4995835;28;20077;-80
2023/06/24 00:33:54;;;;;;;6.50;4.75;;;15.90;99.90;;;;;;4992998;28;20124;-80
2023/06/24 00:36:21;;;;;;;7.93;4.88;;;15.90;99.90;;;;;;4995385;28;20156;-80
2023/06/24 00:38:48;;;;;;;5.90;4.90;;;15.80;99.90;;;;;;4995474;28;20268;-80
2023/06/24 00:41:15;;;;;;;8.73;5.88;;;15.80;99.90;;;;;;4995797;28;20078;-80
2023/06/24 00:43:41;;;;;;;11.07;6.60;;;15.80;99.90;;;;;;4995509;28;20169;-80
2023/06/24 00:46:07;;;;;;;9.27;6.30;;;15.80;99.90;;;;;;4993959;28;20481;-80
2023/06/24 00:48:32;;;;;;;12.18;6.38;;;15.80;99.90;;;;;;4994665;28;20479;-80
2023/06/24 00:51:01;;;;;;;6.50;5.32;;;15.80;99.90;;;;;;4994428;28;20034;-80
2023/06/24 00:53:27;;;;;;;6.85;4.80;;;15.80;99.90;;;;;;4993681;28;20277;-80
2023/06/24 00:55:55;;;;;;;6.55;4.95;;;15.80;99.90;;;;;;4992857;28;20039;-80
2023/06/24 00:58:21;;;;;;;6.50;5.22;;;15.80;99.90;;;;;;4991785;28;20057;-80
2023/06/24 01:00:56;;;;;;;7.22;4.80;;;15.80;99.90;;;;;;4993529;28;20041;-80
2023/06/24 01:03:23;;;;;;;5.85;4.57;;;15.80;99.90;;;;;;4993381;28;20168;-80
2023/06/24 01:05:49;;;;;;;7.30;4.95;;;15.80;99.90;;;;;;4993114;28;20030;-80
2023/06/24 01:08:15;;;;;;;6.55;4.60;;;15.80;99.90;;;;;;4992502;28;20048;-80
2023/06/24 01:10:41;;;;;;;6.05;4.50;;;15.80;99.90;;;;;;4992730;28;20030;-80
2023/06/24 01:13:07;;;;;;;6.28;4.40;;;15.80;99.90;;;;;;4992360;28;20116;-80
2023/06/24 01:15:33;;;;;;;6.22;4.43;;;15.80;99.90;;;;;;4991617;28;20050;-80
2023/06/24 01:18:20;;;;;;;7.57;4.63;;;15.80;99.90;;;;;;4991568;28;20044;-80
2023/06/24 01:20:52;;;;;;;10.05;4.90;;;15.80;99.90;;;;;;4990136;28;20463;-80
2023/06/24 01:24:08;;;;;;;5.72;4.93;;;15.80;99.90;;;;;;4991754;28;20205;-80
2023/06/24 01:27:10;;;;;;;6.35;4.75;;;15.70;99.90;;;;;;4949541;28;21320;-80
2023/06/24 01:29:35;;;;;;;6.53;4.70;;;15.70;99.90;;;;;;4992347;28;20045;-80
2023/06/24 01:32:29;;;;;;;9.15;4.78;;;15.70;99.90;;;;;;4992827;28;20210;-80
2023/06/24 01:35:03;;;;;;;7.13;4.43;;;15.80;99.90;;;;;;4992285;28;20034;-80
2023/06/24 01:37:35;;;;;;;8.57;5.32;;;15.70;99.90;;;;;;4994094;28;20057;-80
2023/06/24 01:40:15;;;;;;;7.47;4.90;;;15.70;99.90;;;;;;4993546;28;20077;-80
2023/06/24 01:42:45;;;;;;;5.47;4.78;;;15.70;99.90;;;;;;4993654;28;20030;-80
2023/06/24 01:45:15;;;;;;;7.28;5.18;;;15.70;99.90;;;;;;4994333;28;20100;-81
2023/06/24 01:47:44;;;;;;;9.32;4.80;;;15.80;99.90;;;;;;4992721;28;20137;-80
2023/06/24 01:50:12;;;;;;;7.97;4.97;;;15.80;99.90;;;;;;4994179;28;20042;-80
2023/06/24 01:52:41;;;;;;;8.32;5.47;;;15.70;99.90;;;;;;4993523;28;20102;-80
2023/06/24 01:55:09;;;;;;;6.65;4.63;;;15.70;99.90;;;;;;4994703;28;20044;-80
2023/06/24 01:57:36;;;;;;;6.15;4.78;;;15.70;99.90;;;;;;4995054;28;20027;-80
2023/06/24 02:00:05;;;;;;;6.07;4.53;;;15.70;99.90;;;;;;4994339;28;20472;-80
2023/06/24 02:02:32;;;;;;;6.53;4.63;;;15.70;99.90;;;;;;4993181;28;20138;-80
2023/06/24 02:05:01;;;;;;;6.18;4.55;;;15.70;99.90;;;;;;4993529;28;20026;-81
2023/06/24 02:07:29;;;;;;;7.13;5.05;;;15.70;99.90;;;;;;4993295;28;20117;-80
2023/06/24 02:09:56;;;;;;;8.55;5.05;;;15.70;99.90;;;;;;4994480;28;20064;-80
2023/06/24 02:12:24;;;;;;;7.50;5.43;;;15.70;99.90;;;;;;4993200;28;20041;-81
2023/06/24 02:14:50;;;;;;;7.78;4.82;;;15.70;99.90;;;;;;4994459;28;20022;-80
2023/06/24 02:17:17;;;;;;;5.95;5.03;;;15.70;99.90;;;;;;4992120;28;20161;-80
2023/06/24 02:19:43;;;;;;;7.43;4.65;;;15.70;99.90;;;;;;4993370;28;21437;-80
2023/06/24 02:22:09;;;;;;;7.18;5.30;;;15.70;99.90;;;;;;4993196;28;20918;-80
2023/06/24 02:24:37;;;;;;;6.72;5.20;;;15.60;99.90;;;;;;4993898;28;20058;-80
2023/06/24 02:27:04;;;;;;;7.63;4.95;;;15.60;99.90;;;;;;4993374;28;20568;-80
2023/06/24 02:29:31;;;;;;;6.97;4.82;;;15.60;99.90;;;;;;4992708;28;20160;-80
2023/06/24 02:31:57;;;;;;;8.27;4.90;;;15.60;99.90;;;;;;4993646;28;20034;-80
2023/06/24 02:34:23;;;;;;;7.57;4.88;;;15.60;99.90;;;;;;4993216;28;20030;-80
2023/06/24 02:36:49;;;;;;;6.72;5.30;;;15.60;99.90;;;;;;4991828;28;20034;-81
2023/06/24 02:39:15;;;;;;;5.68;4.70;;;15.60;99.90;;;;;;4992854;28;20805;-80
2023/06/24 02:41:40;;;;;;;5.95;4.50;;;15.60;99.90;;;;;;4994068;28;20540;-80
2023/06/24 02:44:06;;;;;;;6.80;4.90;;;15.50;99.90;;;;;;4995209;28;20521;-81
2023/06/24 02:46:34;;;;;;;7.22;5.05;;;15.50;99.90;;;;;;4992489;28;20018;-81
2023/06/24 02:49:00;;;;;;;6.82;5.28;;;15.50;99.90;;;;;;4992005;28;20042;-80
2023/06/24 02:51:26;;;;;;;6.18;4.80;;;15.50;99.90;;;;;;4993048;28;20074;-80
2023/06/24 02:53:52;;;;;;;6.85;4.97;;;15.50;99.90;;;;;;4993435;28;20933;-80
2023/06/24 02:56:20;;;;;;;7.68;4.72;;;15.50;99.90;;;;;;4995638;28;20022;-80
2023/06/24 02:58:47;;;;;;;6.90;4.65;;;15.50;99.90;;;;;;4996732;28;20033;-80
2023/06/24 03:01:13;;;;;;;5.85;4.72;;;15.50;99.90;;;;;;4997945;28;20049;-80
2023/06/24 03:03:41;;;;;;;5.90;4.65;;;15.50;99.90;;;;;;4998695;28;20907;-80
2023/06/24 03:06:07;;;;;;;6.70;4.60;;;15.50;99.90;;;;;;4995840;28;20060;-81
2023/06/24 03:08:33;;;;;;;7.28;4.60;;;15.50;99.90;;;;;;4995765;28;20061;-80
2023/06/24 03:10:58;;;;;;;5.22;4.25;;;15.50;99.90;;;;;;4996775;28;20035;-80
2023/06/24 03:13:24;;;;;;;6.13;5.00;;;15.50;99.90;;;;;;4997079;28;20030;-81
2023/06/24 03:15:50;;;;;;;9.98;4.75;;;15.50;99.90;;;;;;4996869;28;20029;-80
2023/06/24 03:18:17;;;;;;;7.05;4.55;;;15.50;99.90;;;;;;4997836;28;20045;-81
2023/06/24 03:20:42;;;;;;;7.03;4.80;;;15.50;99.90;;;;;;4996722;28;20026;-80
2023/06/24 03:23:08;;;;;;;5.90;4.63;;;15.50;99.90;;;;;;4996719;28;20038;-80
2023/06/24 03:25:37;;;;;;;7.50;5.65;;;15.50;99.90;;;;;;4996879;28;20040;-80
2023/06/24 03:28:07;;;;;;;8.05;4.65;;;15.50;99.90;;;;;;4997778;28;20089;-80
2023/06/24 03:30:33;;;;;;;6.63;4.82;;;15.50;99.90;;;;;;4996813;28;20046;-81
2023/06/24 03:32:58;;;;;;;8.07;4.47;;;15.50;99.90;;;;;;4994369;28;20034;-80
2023/06/24 03:35:24;;;;;;;5.90;4.35;;;15.50;99.90;;;;;;4996516;28;20045;-80
2023/06/24 03:37:49;;;;;;;6.28;4.50;;;15.50;99.90;;;;;;4997823;28;20031;-80
2023/06/24 03:40:15;;;;;;;6.15;4.68;;;15.50;99.90;;;;;;4997457;28;20030;-81
2023/06/24 03:42:41;;;;;;;5.75;4.43;;;15.50;99.90;;;;;;4996142;28;20026;-82
2023/06/24 03:45:07;;;;;;;5.97;4.13;;;15.50;99.90;;;;;;4996949;28;20168;-80
2023/06/24 03:47:32;;;;;;;5.32;4.47;;;15.40;99.90;;;;;;4995984;28;20037;-81
2023/06/24 03:49:58;;;;;;;5.80;4.05;;;15.40;99.90;;;;;;4996927;28;20033;-81
2023/06/24 03:52:24;;;;;;;6.68;4.47;;;15.50;99.90;;;;;;4997323;28;20045;-85
2023/06/24 03:54:50;;;;;;;8.13;5.10;;;15.40;99.90;;;;;;4994472;28;20037;-80
2023/06/24 03:57:16;;;;;;;8.32;4.75;;;15.40;99.90;;;;;;4993141;28;20030;-82
2023/06/24 03:59:42;;;;;;;8.13;4.57;;;15.40;99.90;;;;;;4995547;28;20045;-81
2023/06/24 04:02:07;;;;;;;5.47;4.40;;;15.40;99.90;;;;;;4992915;28;20038;-81
2023/06/24 04:04:34;;;;;;;5.03;3.83;;;15.40;99.90;;;;;;4992075;28;20037;-81
2023/06/24 04:06:59;;;;;;;6.20;4.70;;;15.50;99.90;;;;;;4988611;28;20040;-81
2023/06/24 04:09:25;;;;;;;9.70;5.30;;;15.50;99.90;;;;;;4992931;28;20046;-80
2023/06/24 04:11:50;;;;;;;5.43;4.32;;;15.50;99.90;;;;;;4989413;28;20061;-81
2023/06/24 04:14:16;;;;;;;5.35;4.38;;;15.50;99.90;;;;;;4992043;28;20041;-81
2023/06/24 04:16:41;;;;;;;7.75;4.53;;;15.60;99.90;;;;;;4992027;28;20691;-80
2023/06/24 04:19:07;;;;;;;5.80;4.75;;;15.60;99.90;;;;;;4993053;28;20029;-83
2023/06/24 04:21:32;;;;;;;7.38;4.88;;;15.60;99.90;;;;;;4991443;28;20113;-84
2023/06/24 04:23:58;;;;;;;6.53;4.18;;;15.70;99.90;;;;;;4989974;28;20672;-78
2023/06/24 04:26:23;;;;;;;9.63;5.65;;;15.70;99.90;;;;;;4988863;28;20074;-73
2023/06/24 04:28:49;;;;;;;7.30;4.60;;;15.70;99.90;;;;;;4986229;28;20037;-73
2023/06/24 04:31:15;;;;;;;6.05;4.18;;;15.70;99.90;;;;;;4986665;28;20031;-83
2023/06/24 04:33:41;;;;;;;7.88;4.60;;;15.80;99.90;;;;;;4987507;28;20062;-83
2023/06/24 04:36:06;;;;;;;6.53;4.45;;;15.80;99.90;;;;;;4989793;28;20034;-82
2023/06/24 04:38:32;;;;;;;6.05;4.78;;;15.90;99.90;;;;;;4992542;28;20040;-81
2023/06/24 04:40:59;;;;;;;5.63;4.22;;;15.90;99.90;;;;;;4992134;28;20122;-84
2023/06/24 04:43:25;;;;;;;6.28;4.35;;;16.00;99.90;;;;;;4991263;28;20144;-83
2023/06/24 04:45:50;;;;;;;5.70;4.53;;;16.00;99.90;;;;;;4990478;28;20085;-81
2023/06/24 04:48:16;;;;;;;5.35;4.45;;;16.10;99.90;;;;;;4993378;28;20061;-82
2023/06/24 04:50:42;;;;;;;6.72;3.97;;;16.10;99.90;;;;;;4991463;28;20101;-80
2023/06/24 04:53:07;;;;;;;7.55;4.47;;;16.20;99.90;;;;;;4989900;28;20544;-82
2023/06/24 04:55:33;;;;;;;5.10;4.43;;;16.20;99.90;;;;;;4988121;28;20028;-81
2023/06/24 04:57:58;;;;;;;6.15;4.35;;;16.30;99.90;;;;;;4991148;28;20494;-83
2023/06/24 05:00:24;;;;;;;5.78;4.90;;;16.40;99.90;;;;;;4991620;28;20033;-81
2023/06/24 05:02:50;;;;;;;6.35;4.43;;;16.40;99.90;;;;;;4991140;28;20029;-81
2023/06/24 05:05:15;;;;;;;8.82;3.92;;;16.50;99.90;;;;;;4990233;28;20095;-81
2023/06/24 05:07:41;;;;;;;6.85;4.70;;;16.50;99.90;;;;;;4989357;28;20042;-81
2023/06/24 05:10:07;;;;;;;7.15;4.20;;;16.60;99.90;;;;;;4989465;28;20034;-81
2023/06/24 05:12:32;;;;;;;6.03;4.15;;;16.60;99.90;;;;;;4988141;28;20133;-81
2023/06/24 05:14:58;;;;;;;6.05;4.50;;;16.70;99.90;;;;;;4992073;28;20026;-80
2023/06/24 05:17:23;;;;;;;6.25;4.43;;;16.70;99.90;;;;;;4992750;28;20618;-81
2023/06/24 05:19:49;;;;;;;5.38;3.88;;;16.70;99.90;;;;;;4991071;28;20034;-81
2023/06/24 05:22:16;;;;;;;5.95;4.20;;;16.80;99.90;;;;;;4993286;28;20023;-82
2023/06/24 05:24:42;;;;;;;11.98;5.00;;;16.80;99.90;;;;;;4991513;28;20474;-81
2023/06/24 05:27:07;;;;;;;4.88;4.20;;;16.80;99.90;;;;;;4991048;28;20157;-80
2023/06/24 05:29:34;;;;;;;6.07;4.75;;;16.90;99.90;;;;;;4991498;28;20040;-82
2023/06/24 05:32:01;;;;;;;7.22;4.57;;;17.00;99.90;;;;;;4991616;28;20030;-82
2023/06/24 05:34:27;;;;;;;6.22;4.38;;;17.00;99.90;;;;;;4991316;28;20905;-81
2023/06/24 05:36:53;;;;;;;5.47;4.50;;;17.00;99.90;;;;;;4990513;28;20153;-81
2023/06/24 05:39:19;;;;;;;6.63;5.10;;;17.00;99.90;;;;;;4991956;28;20028;-82
2023/06/24 05:41:45;;;;;;;5.65;4.40;;;17.10;99.90;;;;;;4991566;28;20034;-82
2023/06/24 05:44:10;;;;;;;6.28;4.00;;;17.10;99.90;;;;;;4991969;28;20029;-83
2023/06/24 05:46:36;;;;;;;5.65;4.72;;;17.20;99.90;;;;;;4991402;28;20026;-81
2023/06/24 05:49:02;;;;;;;5.80;4.50;;;17.20;99.90;;;;;;4990672;28;20038;-81
2023/06/24 05:51:28;;;;;;;7.22;4.97;;;17.30;99.90;;;;;;4990505;28;20133;-80
2023/06/24 05:53:53;;;;;;;5.70;4.20;;;17.40;99.90;;;;;;4992043;28;20068;-81
2023/06/24 05:56:21;;;;;;;5.75;4.57;;;17.40;99.90;;;;;;4999457;28;20021;-82
2023/06/24 05:58:46;;;;;;;5.45;4.43;;;17.50;99.90;;;;;;5001421;28;20034;-81
2023/06/24 06:01:12;;;;;;;8.52;4.72;;;17.50;99.90;;;;;;5000108;28;20049;-82
2023/06/24 06:03:37;;;;;;;5.10;4.60;;;17.70;99.90;;;;;;4994179;28;20093;-81
2023/06/24 06:06:03;;;;;;;7.50;4.10;;;17.70;99.90;;;;;;4990428;28;20046;-81
2023/06/24 06:08:29;;;;;;;7.05;4.47;;;17.70;99.90;;;;;;4989699;28;20053;-81
2023/06/24 06:10:55;;;;;;;7.88;4.07;;;17.80;99.90;;;;;;4990135;28;20038;-83
2023/06/24 06:13:20;;;;;;;7.10;4.40;;;17.90;99.90;;;;;;4990562;28;20025;-80
2023/06/24 06:15:46;;;;;;;6.85;4.05;;;17.90;99.90;;;;;;4991848;28;20030;-81
2023/06/24 06:18:11;;;;;;;4.88;4.07;;;18.10;99.90;;;;;;4990790;28;20033;-82
2023/06/24 06:20:37;;;;;;;5.55;4.00;;;18.20;99.90;;;;;;4990982;28;20034;-81
2023/06/24 06:23:03;;;;;;;4.75;3.85;;;18.20;99.90;;;;;;4989892;28;20053;-81
2023/06/24 06:25:28;;;;;;;5.32;4.20;;;18.30;99.90;;;;;;4989658;28;20061;-81
2023/06/24 06:27:54;;;;;;;7.47;4.57;;;18.40;99.90;;;;;;4989960;28;20026;-81
2023/06/24 06:30:20;;;;;;;5.03;4.47;;;18.50;99.90;;;;;;4989678;28;20034;-81
2023/06/24 06:32:45;;;;;;;4.57;3.95;;;18.60;99.90;;;;;;4989807;28;20038;-81
2023/06/24 06:35:11;;;;;;;5.20;4.38;;;18.70;99.90;;;;;;4990875;28;20026;-83
2023/06/24 06:37:37;;;;;;;5.28;4.30;;;18.70;99.90;;;;;;4989998;28;20078;-81
2023/06/24 06:40:03;;;;;;;5.10;4.00;;;18.80;99.90;;;;;;4990441;28;20150;-84
2023/06/24 06:42:29;;;;;;;5.68;4.00;;;18.90;99.90;;;;;;4989612;28;20516;-80
2023/06/24 06:44:55;;;;;;;4.65;3.97;;;19.10;99.90;;;;;;4992048;28;20114;-80
2023/06/24 06:47:21;;;;;;;5.50;3.60;;;19.20;99.90;;;;;;4989926;28;20125;-81
2023/06/24 06:49:46;;;;;;;5.20;3.88;;;19.20;99.90;;;;;;4989884;28;20046;-81
2023/06/24 06:52:12;;;;;;;4.10;3.47;;;19.30;99.90;;;;;;4988178;28;20118;-82
2023/06/24 06:54:37;;;;;;;5.47;3.60;;;19.40;99.90;;;;;;4988947;28;20034;-81
2023/06/24 06:57:04;;;;;;;4.55;3.83;;;19.50;99.90;;;;;;4990092;28;20027;-81
2023/06/24 06:59:32;;;;;;;5.07;3.97;;;19.50;99.90;;;;;;4987941;28;20023;-81
2023/06/24 07:01:58;;;;;;;4.80;3.47;;;19.50;99.90;;;;;;4990189;28;20034;-81
2023/06/24 07:04:24;;;;;;;4.53;3.88;;;19.50;99.90;;;;;;4989847;28;20267;-81
2023/06/24 07:06:50;;;;;;;4.57;3.80;;;19.50;99.90;;;;;;4989821;28;20088;-81
2023/06/24 07:09:15;;;;;;;7.78;3.60;;;19.60;99.90;;;;;;4991036;28;20556;-81
2023/06/24 07:11:42;;;;;;;5.15;3.58;;;19.50;99.90;;;;;;4989893;28;20034;-81
2023/06/24 07:14:07;;;;;;;4.55;3.45;;;19.60;99.90;;;;;;4989666;28;21004;-80
2023/06/24 07:16:33;;;;;;;5.13;3.47;;;19.80;99.90;;;;;;4989742;28;20018;-81
2023/06/24 07:18:59;;;;;;;4.50;3.47;;;19.90;99.90;;;;;;4989157;28;20477;-81
2023/06/24 07:21:24;;;;;;;4.47;3.45;;;20.00;99.90;;;;;;4988770;28;20027;-81
2023/06/24 07:23:50;;;;;;;5.50;3.63;;;20.00;99.90;;;;;;4986161;28;20034;-81
2023/06/24 07:26:15;;;;;;;5.07;3.38;;;20.10;99.90;;;;;;4987784;28;20543;-81
2023/06/24 07:28:41;;;;;;;4.53;3.67;;;20.10;99.90;;;;;;4988820;28;20044;-81
2023/06/24 07:31:07;;;;;;;4.38;3.65;;;20.10;99.90;;;;;;4991360;28;20161;-81
2023/06/24 07:33:32;;;;;;;7.00;3.70;;;20.10;99.90;;;;;;4990524;28;20061;-81
2023/06/24 07:35:58;;;;;;;5.18;3.80;;;20.10;99.90;;;;;;4986760;28;20030;-82
2023/06/24 07:38:23;;;;;;;4.15;3.20;;;20.00;99.90;;;;;;4987961;28;20035;-81
2023/06/24 07:40:49;;;;;;;4.18;3.08;;;20.00;99.90;;;;;;4988268;28;20483;-81
2023/06/24 07:43:14;;;;;;;5.07;3.45;;;20.10;99.90;;;;;;4989250;28;20395;-82
2023/06/24 07:45:40;;;;;;;5.43;3.20;;;20.20;99.90;;;;;;4991753;28;20054;-80
2023/06/24 07:48:07;;;;;;;5.13;3.60;;;20.20;99.90;;;;;;4990557;28;20026;-80
2023/06/24 07:50:33;;;;;;;5.38;3.78;;;20.20;99.90;;;;;;4990735;28;20388;-81
2023/06/24 07:52:59;;;;;;;6.35;3.50;;;20.00;99.90;;;;;;4990482;28;20102;-82
2023/06/24 07:55:24;;;;;;;5.75;3.50;;;20.00;99.90;;;;;;4990643;28;20030;-81
2023/06/24 07:57:50;;;;;;;4.22;3.20;;;20.00;99.90;;;;;;4989473;28;20038;-81
2023/06/24 08:00:16;;;;;;;5.13;3.38;;;20.10;99.90;;;;;;4988908;28;20042;-82
2023/06/24 08:02:42;;;;;;;5.00;3.70;;;20.10;99.90;;;;;;4988202;28;20230;-82
2023/06/24 08:05:09;;;;;;;4.47;3.17;;;20.10;99.90;;;;;;4989103;28;20023;-82
2023/06/24 08:07:35;;;;;;;5.15;3.30;;;20.10;99.90;;;;;;4991204;28;20038;-82
2023/06/24 08:10:00;;;;;;;4.60;3.15;;;20.10;99.90;;;;;;4989751;28;20078;-83
2023/06/24 08:12:26;;;;;;;3.95;3.40;;;20.30;99.90;;;;;;4989519;28;20069;-81
2023/06/24 08:14:51;;;;;;;6.07;3.25;;;20.50;99.90;;;;;;4990146;28;20037;-81
2023/06/24 08:17:17;;;;;;;4.60;3.80;;;20.50;99.90;;;;;;4989084;28;20025;-82
2023/06/24 08:19:43;;;;;;;5.40;3.80;;;20.50;99.90;;;;;;4989386;28;20034;-82
2023/06/24 08:22:08;;;;;;;4.35;3.60;;;20.40;99.90;;;;;;4988840;28;20121;-82
2023/06/24 08:24:34;;;;;;;4.75;3.10;;;20.50;99.90;;;;;;4990449;28;20034;-81
2023/06/24 08:26:59;;;;;;;6.53;3.88;;;20.40;99.90;;;;;;4989350;28;20042;-81
2023/06/24 08:29:25;;;;;;;6.47;3.45;;;20.50;99.90;;;;;;4988201;28;20124;-82
2023/06/24 08:31:50;;;;;;;6.32;3.47;;;20.60;99.90;;;;;;4988528;28;20039;-83
2023/06/24 08:34:16;;;;;;;4.45;3.25;;;20.60;99.90;;;;;;4988963;28;21415;-81
2023/06/24 08:36:41;;;;;;;4.05;3.15;;;20.60;99.90;;;;;;4988341;28;20103;-81
2023/06/24 08:39:07;;;;;;;5.57;3.35;;;20.70;99.90;;;;;;4989191;28;20042;-82
2023/06/24 08:41:33;;;;;;;5.15;2.95;;;20.80;99.90;;;;;;4988573;28;20030;-82
2023/06/24 08:43:59;;;;;;;3.50;2.85;;;20.80;99.90;;;;;;4988373;28;20029;-81
2023/06/24 08:46:25;;;;;;;5.05;3.45;;;20.90;99.90;;;;;;4986826;28;20024;-81
2023/06/24 08:49:02;;;;;;;4.63;3.33;;;20.90;99.90;;;;;;4987106;28;20034;-82
2023/06/24 08:51:31;;;;;;;4.18;3.45;;;21.00;99.90;;;;;;4985434;28;20030;-82
2023/06/24 08:53:58;;;;;;;5.78;3.53;;;21.10;99.90;;;;;;4987147;28;20038;-82
2023/06/24 08:56:24;;;;;;;6.43;4.05;;;21.20;99.90;;;;;;4984260;28;20026;-81
2023/06/24 08:58:51;;;;;;;5.00;3.75;;;21.30;99.90;;;;;;4986729;28;20066;-80
2023/06/24 09:01:17;;;;;;;5.70;3.20;;;21.40;99.90;;;;;;4987582;28;20023;-81
2023/06/24 09:03:43;;;;;;;4.00;3.33;;;21.50;99.90;;;;;;4988294;28;20138;-82
2023/06/24 09:06:08;;;;;;;5.10;4.05;;;21.80;99.90;;;;;;4989582;28;20505;-81
2023/06/24 09:08:35;;;;;;;3.83;3.15;;;21.90;99.90;;;;;;4991270;28;20049;-80
2023/06/24 09:11:01;;;;;;;5.72;3.97;;;22.10;99.90;;;;;;4990382;28;20451;-80
2023/06/24 09:13:36;;;;;;;4.78;3.67;;;22.10;99.90;;;;;;4991452;28;20034;-81
2023/06/24 09:16:13;;;;;;;5.28;3.97;;;22.00;99.90;;;;;;4988369;28;20066;-84
2023/06/24 09:18:39;;;;;;;4.45;3.67;;;22.00;99.90;;;;;;4988872;28;20026;-81
2023/06/24 09:21:05;;;;;;;6.38;4.20;;;22.00;99.90;;;;;;4989218;28;20073;-82
2023/06/24 09:23:35;;;;;;;6.95;4.35;;;22.00;99.90;;;;;;4991064;28;20823;-84
2023/06/24 09:26:01;;;;;;;5.85;3.88;;;22.10;99.90;;;;;;4991550;28;20487;-81
2023/06/24 09:28:27;;;;;;;5.75;4.18;;;22.10;99.90;;;;;;4991111;28;20121;-83
2023/06/24 09:31:13;;;;;;;5.47;3.85;;;22.20;99.90;;;;;;4992760;28;20058;-83
2023/06/24 09:33:40;;;;;;;4.88;3.92;;;22.60;99.90;;;;;;4990565;28;20176;-81
2023/06/24 09:36:05;;;;;;;6.45;4.47;;;22.70;99.90;;;;;;4988908;28;20037;-82
2023/06/24 09:38:36;;;;;;;4.75;3.63;;;22.90;99.90;;;;;;4992000;28;20031;-81
2023/06/24 09:41:05;;;;;;;6.00;4.75;;;23.10;99.90;;;;;;4992796;28;20719;-84
2023/06/24 09:43:34;;;;;;;6.63;4.10;;;23.20;99.90;;;;;;4992310;28;20045;-82
2023/06/24 09:46:02;;;;;;;7.18;4.22;;;23.50;99.90;;;;;;4992457;28;20053;-82
2023/06/24 09:48:27;;;;;;;4.40;3.85;;;23.70;99.90;;;;;;4992261;28;20117;-82
2023/06/24 09:51:00;;;;;;;5.13;4.07;;;24.00;99.90;;;;;;4992298;28;20111;-82
2023/06/24 09:53:30;;;;;;;4.57;4.03;;;24.30;99.90;;;;;;4991833;28;20026;-82
2023/06/24 09:55:57;;;;;;;4.47;3.78;;;24.60;99.90;;;;;;4990974;28;20023;-82
2023/06/24 09:58:24;;;;;;;5.28;3.75;;;24.80;99.90;;;;;;4993611;28;20143;-85
2023/06/24 10:00:50;;;;;;;4.90;4.20;;;25.10;99.90;;;;;;4991160;28;20034;-82
2023/06/24 10:03:17;;;;;;;5.00;3.80;;;25.10;99.90;;;;;;4990646;28;20037;-82
2023/06/24 10:05:43;;;;;;;6.20;3.80;;;24.80;99.90;;;;;;4987058;28;20030;-83
2023/06/24 10:08:10;;;;;;;4.78;3.67;;;24.70;99.90;;;;;;4989689;28;20109;-82
2023/06/24 10:10:35;;;;;;;4.85;3.90;;;24.90;99.90;;;;;;4989574;28;20026;-82
2023/06/24 10:13:01;;;;;;;5.70;3.47;;;25.10;99.90;;;;;;4991005;28;20065;-82
2023/06/24 10:15:27;;;;;;;7.55;4.10;;;25.00;99.90;;;;;;4991071;28;20112;-83
2023/06/24 10:17:52;;;;;;;5.32;3.80;;;25.30;99.90;;;;;;4991875;28;20446;-82
2023/06/24 10:20:26;;;;;;;4.65;3.75;;;25.30;99.90;;;;;;4991326;28;20052;-82
2023/06/24 10:22:52;;;;;;;5.40;3.63;;;25.50;99.90;;;;;;4988562;28;20058;-83
2023/06/24 10:25:18;;;;;;;5.82;3.72;;;25.60;99.90;;;;;;4990273;28;20124;-84
2023/06/24 10:27:44;;;;;;;6.28;3.70;;;26.00;99.90;;;;;;4989666;28;20699;-84
2023/06/24 10:30:19;;;;;;;4.55;3.90;;;25.70;99.90;;;;;;4990515;28;20038;-82
2023/06/24 10:32:44;;;;;;;5.25;3.38;;;25.90;99.90;;;;;;4990528;28;20033;-84
2023/06/24 10:35:29;;;;;;;4.93;3.55;;;25.90;99.90;;;;;;4990775;28;20402;-82
2023/06/24 10:37:59;;;;;;;3.90;2.95;;;25.80;99.90;;;;;;4992930;28;20039;-82
2023/06/24 10:40:54;;;;;;;5.18;3.40;;;25.80;99.90;;;;;;4992142;28;20490;-83
2023/06/24 10:43:20;;;;;;;;;;;26.20;99.90;;;;;;4972769;28;20043;-83
2023/06/24 10:45:52;;;;;;;4.00;3.33;;;26.30;99.90;;;;;;4991500;28;19918;-82
2023/06/24 10:48:21;;;;;;;7.43;3.67;;;26.30;99.90;;;;;;4993503;28;20042;-83
2023/06/24 10:50:47;;;;;;;4.93;3.90;;;26.30;99.90;;;;;;4991342;28;20089;-83
2023/06/24 10:53:13;;;;;;;4.53;3.50;;;26.50;99.90;;;;;;4990525;28;20031;-82
2023/06/24 10:55:39;;;;;;;4.30;3.10;;;26.60;99.90;;;;;;4989102;28;20030;-82
2023/06/24 10:58:09;;;;;;;5.30;3.95;;;26.80;99.90;;;;;;4992203;28;20442;-82
2023/06/24 11:00:35;;;;;;;4.75;3.42;;;26.80;99.90;;;;;;4992019;28;20117;-82
2023/06/24 11:03:15;;;;;;;4.80;3.50;;;26.70;98.30;;;;;;4992315;28;20157;-83
2023/06/24 11:05:41;;;;;;;4.78;3.33;;;26.80;96.90;;;;;;4991852;28;20022;-83
2023/06/24 11:08:08;;;;;;;4.95;3.05;;;26.70;99.90;;;;;;4991088;28;20022;-86
2023/06/24 11:10:33;;;;;;;5.55;2.92;;;26.90;98.50;;;;;;4991271;28;20600;-82
2023/06/24 11:13:05;;;;;;;3.28;2.97;;;27.00;99.60;;;;;;4990800;28;20046;-85
2023/06/24 11:15:32;;;;;;;4.07;3.15;;;27.20;96.70;;;;;;4990455;28;20052;-85
2023/06/24 11:17:58;;;;;;;4.68;3.92;;;27.00;97.50;;;;;;4994260;28;20491;-83
2023/06/24 11:20:23;;;;;;;4.97;3.67;;;26.80;97.10;;;;;;4995224;28;20044;-82
2023/06/24 11:22:49;;;;;;;7.43;3.78;;;26.70;97.40;;;;;;4996453;28;20097;-83
2023/06/24 11:25:20;;;;;;;4.90;3.90;;;26.90;95.90;;;;;;4992766;28;20045;-82
2023/06/24 11:27:46;;;;;;;5.18;3.60;;;27.10;97.00;;;;;;4992822;28;20034;-82
2023/06/24 11:30:12;;;;;;;5.10;3.88;;;27.10;96.10;;;;;;4991590;28;20049;-83
2023/06/24 11:32:40;;;;;;;4.05;3.22;;;27.10;97.70;;;;;;4992676;28;20023;-82
2023/06/24 11:35:08;;;;;;;5.20;3.75;;;27.30;98.00;;;;;;4994249;28;20026;-83
2023/06/24 11:37:34;;;;;;;6.88;3.70;;;27.50;96.20;;;;;;4994194;28;20169;-83
2023/06/24 11:40:07;;;;;;;5.97;4.13;;;27.70;96.70;;;;;;4993496;28;20084;-83
2023/06/24 11:42:36;;;;;;;4.60;3.63;;;27.50;95.50;;;;;;4992837;28;20077;-83
2023/06/24 11:45:03;;;;;;;5.15;3.58;;;27.20;97.30;;;;;;4994472;28;20030;-87
2023/06/24 11:47:33;;;;;;;3.85;3.00;;;27.40;97.90;;;;;;4993050;28;20026;-83
2023/06/24 11:50:00;;;;;;;5.43;3.53;;;27.80;95.80;;;;;;4994278;28;20128;-83
2023/06/24 11:52:43;;;;;;;4.43;3.55;;;27.60;95.70;;;;;;4992829;28;20034;-81
2023/06/24 11:55:23;;;;;;;3.95;3.28;;;26.90;96.20;;;;;;4993975;28;20037;-82
2023/06/24 11:57:58;;;;;;;4.45;3.10;;;26.60;96.50;;;;;;4993704;28;20052;-85
2023/06/24 12:00:45;;;;;;;5.43;2.95;;;26.60;97.50;;;;;;4993629;28;20051;-82
2023/06/24 12:03:11;;;;;;;4.10;3.38;;;26.80;95.00;;;;;;4993061;28;20432;-81
2023/06/24 12:05:39;;;;;;;6.72;3.70;;;26.90;96.00;;;;;;4992932;28;20030;-85
2023/06/24 12:08:08;;;;;;;3.90;3.20;;;27.10;95.80;;;;;;4994630;28;20074;-84
2023/06/24 12:10:35;;;;;;;5.63;3.47;;;27.30;95.20;;;;;;4993557;28;20045;-84
2023/06/24 12:13:02;;;;;;;3.30;2.83;;;27.70;94.70;;;;;;4993669;28;20041;-83
2023/06/24 12:15:29;;;;;;;6.30;3.53;;;28.10;94.40;;;;;;4992919;28;20092;-83
2023/06/24 12:17:55;;;;;;;5.45;3.30;;;28.20;93.30;;;;;;4991760;28;20033;-83
2023/06/24 12:20:21;;;;;;;5.13;3.38;;;28.30;92.80;;;;;;4993689;28;20060;-82
2023/06/24 12:22:48;;;;;;;4.20;3.10;;;28.20;93.70;;;;;;4993646;28;20022;-82
2023/06/24 12:25:14;;;;;;;4.85;3.78;;;28.30;92.90;;;;;;4994312;28;20042;-83
2023/06/24 12:27:42;;;;;;;3.85;3.30;;;28.20;91.90;;;;;;4993255;28;20034;-82
2023/06/24 12:30:09;;;;;;;4.90;3.80;;;28.00;90.30;;;;;;4993447;28;20042;-84
2023/06/24 12:32:34;;;;;;;4.15;3.47;;;28.00;89.60;;;;;;4993342;28;20121;-83
2023/06/24 12:35:00;;;;;;;5.65;3.17;;;27.60;92.00;;;;;;4993019;28;20037;-83
2023/06/24 12:37:30;;;;;;;4.50;3.10;;;27.40;91.30;;;;;;4991981;28;20030;-83
2023/06/24 12:39:56;;;;;;;4.63;2.83;;;27.30;91.30;;;;;;4992051;28;20668;-82
2023/06/24 12:42:21;;;;;;;4.82;3.50;;;27.50;90.30;;;;;;4990089;28;20034;-82
2023/06/24 12:44:47;;;;;;;5.28;3.15;;;27.60;90.20;;;;;;4990084;28;20395;-82
2023/06/24 12:47:12;;;;;;;5.05;3.17;;;27.50;92.10;;;;;;4989307;28;20080;-82
2023/06/24 12:49:38;;;;;;;4.13;3.00;;;27.40;91.00;;;;;;4989518;28;20034;-82